sensor_id;sensor_type;location;lat;lon;timestamp;pressure;altitude;pressure_sealevel;temperature;humidity
64053;BME280;50299;49.524;8.536;2023-03-26T00:01:17;100012.28;;;5.19;65.84
64053;BME280;50299;49.524;8.536;2023-03-26T00:03:46;100017.16;;;5.22;67.32
64053;BME280;50299;49.524;8.536;2023-03-26T00:06:21;100015.44;;;5.26;65.85
64053;BME280;50299;49.524;8.536;2023-03-26T00:08:48;100018.06;;;5.31;65.71
64053;BME280;50299;49.524;8.536;2023-03-26T00:11:16;100013.59;;;5.35;67.69
64053;BME280;50299;49.524;8.536;2023-03-26T00:13:43;100000.19;;;5.48;68.01
64053;BME280;50299;49.524;8.536;2023-03-26T00:16:11;100006.59;;;5.57;67.45
64053;BME280;50299;49.524;8.536;2023-03-26T00:18:39;100004.03;;;5.47;68.70
64053;BME280;50299;49.524;8.536;2023-03-26T00:21:13;100001.72;;;5.40;66.32
64053;BME280;50299;49.524;8.536;2023-03-26T00:23:41;100000.19;;;5.34;67.93
64053;BME280;50299;49.524;8.536;2023-03-26T00:26:08;99996.13;;;5.45;69.09
64053;BME280;50299;49.524;8.536;2023-03-26T00:28:39;99993.59;;;5.49;70.06
64053;BME280;50299;49.524;8.536;2023-03-26T00:31:09;99999.25;;;5.66;69.73
64053;BME280;50299;49.524;8.536;2023-03-26T00:33:36;99991.91;;;5.75;70.02
64053;BME280;50299;49.524;8.536;2023-03-26T00:36:06;100007.38;;;5.71;70.40
64053;BME280;50299;49.524;8.536;2023-03-26T00:38:36;100002.47;;;5.82;69.62
64053;BME280;50299;49.524;8.536;2023-03-26T00:41:08;100002.28;;;5.92;69.46
64053;BME280;50299;49.524;8.536;2023-03-26T00:43:44;100005.63;;;5.89;68.20
64053;BME280;50299;49.524;8.536;2023-03-26T00:46:11;99994.56;;;5.80;68.74
64053;BME280;50299;49.524;8.536;2023-03-26T00:48:38;99996.78;;;5.78;67.97
64053;BME280;50299;49.524;8.536;2023-03-26T00:51:13;99991.31;;;5.78;68.59
64053;BME280;50299;49.524;8.536;2023-03-26T00:53:44;99997.91;;;5.77;68.59
64053;BME280;50299;49.524;8.536;2023-03-26T00:56:11;99991.03;;;5.66;68.21
64053;BME280;50299;49.524;8.536;2023-03-26T00:58:38;99976.78;;;5.78;69.37
64053;BME280;50299;49.524;8.536;2023-03-26T01:01:11;99981.53;;;5.86;68.26
64053;BME280;50299;49.524;8.536;2023-03-26T01:03:43;99973.91;;;5.83;69.08
64053;BME280;50299;49.524;8.536;2023-03-26T01:06:28;99968.75;;;5.81;68.95
64053;BME280;50299;49.524;8.536;2023-03-26T01:09:02;99963.19;;;5.73;67.05
64053;BME280;50299;49.524;8.536;2023-03-26T01:11:31;99957.22;;;5.57;67.96
64053;BME280;50299;49.524;8.536;2023-03-26T01:14:06;99948.19;;;5.42;67.44
64053;BME280;50299;49.524;8.536;2023-03-26T01:16:38;99955.16;;;5.26;67.33
64053;BME280;50299;49.524;8.536;2023-03-26T01:19:11;99951.56;;;5.26;66.44
64053;BME280;50299;49.524;8.536;2023-03-26T01:21:41;99951.88;;;4.97;67.48
64053;BME280;50299;49.524;8.536;2023-03-26T01:24:08;99939.81;;;4.98;68.44
64053;BME280;50299;49.524;8.536;2023-03-26T01:26:51;99942.25;;;4.99;68.71
64053;BME280;50299;49.524;8.536;2023-03-26T01:29:40;99933.13;;;4.90;68.16
64053;BME280;50299;49.524;8.536;2023-03-26T01:32:37;99936.31;;;4.78;68.48
64053;BME280;50299;49.524;8.536;2023-03-26T01:38:05;99931.06;;;4.96;67.58
64053;BME280;50299;49.524;8.536;2023-03-26T01:40:44;99923.78;;;5.05;68.92
64053;BME280;50299;49.524;8.536;2023-03-26T01:43:32;99915.13;;;5.25;68.65
64053;BME280;50299;49.524;8.536;2023-03-26T01:46:05;99918.84;;;5.57;68.80
64053;BME280;50299;49.524;8.536;2023-03-26T01:48:37;99912.63;;;5.65;68.48
64053;BME280;50299;49.524;8.536;2023-03-26T01:51:05;99905.16;;;5.79;64.27
64053;BME280;50299;49.524;8.536;2023-03-26T01:53:34;99902.47;;;5.65;65.17
64053;BME280;50299;49.524;8.536;2023-03-26T01:56:20;99902.78;;;5.64;66.54
64053;BME280;50299;49.524;8.536;2023-03-26T01:59:09;99901.31;;;5.80;64.85
64053;BME280;50299;49.524;8.536;2023-03-26T02:04:36;99882.22;;;5.75;63.56
64053;BME280;50299;49.524;8.536;2023-03-26T02:07:20;99881.72;;;5.73;63.53
64053;BME280;50299;49.524;8.536;2023-03-26T02:09:58;99873.50;;;5.73;64.44
64053;BME280;50299;49.524;8.536;2023-03-26T02:12:26;99870.81;;;5.59;65.61
64053;BME280;50299;49.524;8.536;2023-03-26T02:14:54;99873.34;;;5.56;64.02
64053;BME280;50299;49.524;8.536;2023-03-26T02:17:20;99854.34;;;5.59;67.18
64053;BME280;50299;49.524;8.536;2023-03-26T02:19:49;99847.44;;;5.62;65.39
64053;BME280;50299;49.524;8.536;2023-03-26T02:22:16;99839.47;;;5.74;65.94
64053;BME280;50299;49.524;8.536;2023-03-26T02:24:45;99841.19;;;5.70;65.22
64053;BME280;50299;49.524;8.536;2023-03-26T02:27:11;99831.00;;;5.84;65.88
64053;BME280;50299;49.524;8.536;2023-03-26T02:29:38;99832.47;;;5.90;66.12
64053;BME280;50299;49.524;8.536;2023-03-26T02:32:07;99833.09;;;6.10;66.35
64053;BME280;50299;49.524;8.536;2023-03-26T02:34:33;99826.38;;;6.47;69.08
64053;BME280;50299;49.524;8.536;2023-03-26T02:37:00;99810.13;;;6.68;69.69
64053;BME280;50299;49.524;8.536;2023-03-26T02:39:26;99813.06;;;6.80;68.13
64053;BME280;50299;49.524;8.536;2023-03-26T02:41:53;99807.78;;;7.01;69.11
64053;BME280;50299;49.524;8.536;2023-03-26T02:44:19;99806.81;;;7.23;70.28
64053;BME280;50299;49.524;8.536;2023-03-26T02:46:46;99803.28;;;7.40;70.86
64053;BME280;50299;49.524;8.536;2023-03-26T02:49:12;99806.84;;;7.32;65.79
64053;BME280;50299;49.524;8.536;2023-03-26T02:51:39;99798.75;;;7.18;63.39
64053;BME280;50299;49.524;8.536;2023-03-26T02:54:05;99802.78;;;7.12;63.55
64053;BME280;50299;49.524;8.536;2023-03-26T02:56:32;99795.97;;;7.01;64.40
64053;BME280;50299;49.524;8.536;2023-03-26T02:58:58;99790.66;;;7.04;65.95
64053;BME280;50299;49.524;8.536;2023-03-26T03:01:25;99791.94;;;7.07;67.25
64053;BME280;50299;49.524;8.536;2023-03-26T03:03:52;99787.72;;;7.01;63.22
64053;BME280;50299;49.524;8.536;2023-03-26T03:06:19;99772.69;;;7.07;69.05
64053;BME280;50299;49.524;8.536;2023-03-26T03:08:45;99770.28;;;7.05;64.31
64053;BME280;50299;49.524;8.536;2023-03-26T03:11:17;99765.59;;;6.97;64.67
64053;BME280;50299;49.524;8.536;2023-03-26T03:13:47;99765.75;;;6.92;63.60
64053;BME280;50299;49.524;8.536;2023-03-26T03:16:13;99763.47;;;7.03;67.75
64053;BME280;50299;49.524;8.536;2023-03-26T03:18:40;99754.75;;;7.01;65.79
64053;BME280;50299;49.524;8.536;2023-03-26T03:21:06;99750.69;;;6.98;65.48
64053;BME280;50299;49.524;8.536;2023-03-26T03:23:32;99743.28;;;7.07;70.22
64053;BME280;50299;49.524;8.536;2023-03-26T03:25:59;99752.00;;;7.09;67.41
64053;BME280;50299;49.524;8.536;2023-03-26T03:28:25;99732.78;;;7.09;66.03
64053;BME280;50299;49.524;8.536;2023-03-26T03:30:51;99733.91;;;7.17;68.08
64053;BME280;50299;49.524;8.536;2023-03-26T03:33:19;99739.06;;;7.19;66.02
64053;BME280;50299;49.524;8.536;2023-03-26T03:35:49;99731.00;;;7.22;69.28
64053;BME280;50299;49.524;8.536;2023-03-26T03:38:16;99734.88;;;7.30;69.17
64053;BME280;50299;49.524;8.536;2023-03-26T03:40:43;99730.34;;;7.34;65.54
64053;BME280;50299;49.524;8.536;2023-03-26T03:43:09;99722.91;;;7.26;66.32
64053;BME280;50299;49.524;8.536;2023-03-26T03:45:36;99717.41;;;7.34;69.44
64053;BME280;50299;49.524;8.536;2023-03-26T03:48:02;99708.34;;;7.43;68.44
64053;BME280;50299;49.524;8.536;2023-03-26T03:50:29;99719.34;;;7.43;64.78
64053;BME280;50299;49.524;8.536;2023-03-26T03:52:59;99707.72;;;7.28;63.63
64053;BME280;50299;49.524;8.536;2023-03-26T03:55:26;99702.22;;;7.28;63.61
64053;BME280;50299;49.524;8.536;2023-03-26T03:57:53;99696.22;;;7.26;65.38
64053;BME280;50299;49.524;8.536;2023-03-26T04:00:19;99697.38;;;7.25;66.83
64053;BME280;50299;49.524;8.536;2023-03-26T04:02:47;99690.25;;;7.24;65.76
64053;BME280;50299;49.524;8.536;2023-03-26T04:05:14;99691.53;;;7.27;70.68
64053;BME280;50299;49.524;8.536;2023-03-26T04:07:40;99682.28;;;7.40;67.10
64053;BME280;50299;49.524;8.536;2023-03-26T04:10:08;99683.94;;;7.32;63.86
64053;BME280;50299;49.524;8.536;2023-03-26T04:12:34;99677.31;;;7.25;66.82
64053;BME280;50299;49.524;8.536;2023-03-26T04:15:03;99674.72;;;7.11;65.97
64053;BME280;50299;49.524;8.536;2023-03-26T04:17:29;99657.75;;;7.09;64.97
64053;BME280;50299;49.524;8.536;2023-03-26T04:19:56;99657.28;;;6.89;65.16
64053;BME280;50299;49.524;8.536;2023-03-26T04:22:22;99646.13;;;6.95;67.27
64053;BME280;50299;49.524;8.536;2023-03-26T04:24:51;99639.66;;;6.82;65.60
64053;BME280;50299;49.524;8.536;2023-03-26T04:27:23;99630.28;;;6.74;64.98
64053;BME280;50299;49.524;8.536;2023-03-26T04:29:52;99627.56;;;6.92;69.53
64053;BME280;50299;49.524;8.536;2023-03-26T04:32:28;99630.63;;;7.07;67.62
64053;BME280;50299;49.524;8.536;2023-03-26T04:34:56;99616.41;;;6.97;63.85
64053;BME280;50299;49.524;8.536;2023-03-26T04:37:28;99618.50;;;6.48;64.85
64053;BME280;50299;49.524;8.536;2023-03-26T04:40:03;99611.69;;;6.36;64.97
64053;BME280;50299;49.524;8.536;2023-03-26T04:42:36;99606.19;;;6.45;66.70
64053;BME280;50299;49.524;8.536;2023-03-26T04:45:07;99602.81;;;6.31;65.10
64053;BME280;50299;49.524;8.536;2023-03-26T04:47:33;99602.97;;;6.26;66.47
64053;BME280;50299;49.524;8.536;2023-03-26T04:50:06;99596.84;;;6.37;65.99
64053;BME280;50299;49.524;8.536;2023-03-26T04:52:33;99587.97;;;6.40;66.84
64053;BME280;50299;49.524;8.536;2023-03-26T04:55:00;99587.97;;;6.40;65.47
64053;BME280;50299;49.524;8.536;2023-03-26T04:57:47;99579.41;;;6.51;66.63
64053;BME280;50299;49.524;8.536;2023-03-26T05:00:17;99569.06;;;6.56;66.64
64053;BME280;50299;49.524;8.536;2023-03-26T05:02:45;99571.19;;;6.51;66.71
64053;BME280;50299;49.524;8.536;2023-03-26T05:05:18;99569.41;;;6.63;67.10
64053;BME280;50299;49.524;8.536;2023-03-26T05:07:44;99567.28;;;6.78;67.42
64053;BME280;50299;49.524;8.536;2023-03-26T05:10:12;99560.97;;;6.77;66.33
64053;BME280;50299;49.524;8.536;2023-03-26T05:12:39;99558.25;;;6.60;66.26
64053;BME280;50299;49.524;8.536;2023-03-26T05:15:07;99552.44;;;6.70;66.47
64053;BME280;50299;49.524;8.536;2023-03-26T05:17:37;99545.47;;;6.73;65.27
64053;BME280;50299;49.524;8.536;2023-03-26T05:20:22;99541.44;;;6.61;64.72
64053;BME280;50299;49.524;8.536;2023-03-26T05:22:49;99542.44;;;6.39;65.30
64053;BME280;50299;49.524;8.536;2023-03-26T05:25:16;99538.41;;;6.46;67.61
64053;BME280;50299;49.524;8.536;2023-03-26T05:27:43;99539.34;;;6.32;64.70
64053;BME280;50299;49.524;8.536;2023-03-26T05:30:14;99531.94;;;6.42;68.44
64053;BME280;50299;49.524;8.536;2023-03-26T05:32:41;99525.63;;;6.41;66.99
64053;BME280;50299;49.524;8.536;2023-03-26T05:35:08;99529.84;;;6.47;67.41
64053;BME280;50299;49.524;8.536;2023-03-26T05:37:34;99520.28;;;6.53;67.81
64053;BME280;50299;49.524;8.536;2023-03-26T05:40:04;99522.22;;;6.53;66.63
64053;BME280;50299;49.524;8.536;2023-03-26T05:42:34;99512.56;;;6.47;67.41
64053;BME280;50299;49.524;8.536;2023-03-26T05:45:01;99515.47;;;6.42;66.58
64053;BME280;50299;49.524;8.536;2023-03-26T05:47:27;99508.19;;;6.37;68.54
64053;BME280;50299;49.524;8.536;2023-03-26T05:49:54;99501.41;;;6.34;67.57
64053;BME280;50299;49.524;8.536;2023-03-26T05:52:20;99496.53;;;6.49;71.58
64053;BME280;50299;49.524;8.536;2023-03-26T05:54:47;99491.19;;;6.61;70.90
64053;BME280;50299;49.524;8.536;2023-03-26T05:57:13;99487.53;;;6.39;70.67
64053;BME280;50299;49.524;8.536;2023-03-26T05:59:39;99486.72;;;6.39;70.63
64053;BME280;50299;49.524;8.536;2023-03-26T06:02:08;99475.72;;;6.48;69.44
64053;BME280;50299;49.524;8.536;2023-03-26T06:04:35;99470.88;;;6.36;71.61
64053;BME280;50299;49.524;8.536;2023-03-26T06:07:07;99469.44;;;6.38;71.63
64053;BME280;50299;49.524;8.536;2023-03-26T06:09:39;99462.47;;;6.41;72.81
64053;BME280;50299;49.524;8.536;2023-03-26T06:12:09;99451.00;;;6.56;75.22
64053;BME280;50299;49.524;8.536;2023-03-26T06:14:36;99449.22;;;6.52;74.98
64053;BME280;50299;49.524;8.536;2023-03-26T06:17:03;99442.47;;;6.40;78.16
64053;BME280;50299;49.524;8.536;2023-03-26T06:19:29;99445.34;;;6.53;73.31
64053;BME280;50299;49.524;8.536;2023-03-26T06:21:56;99447.97;;;6.23;72.49
64053;BME280;50299;49.524;8.536;2023-03-26T06:24:22;99444.88;;;5.99;72.18
64053;BME280;50299;49.524;8.536;2023-03-26T06:26:48;99443.75;;;5.91;73.84
64053;BME280;50299;49.524;8.536;2023-03-26T06:29:15;99426.34;;;6.04;76.56
64053;BME280;50299;49.524;8.536;2023-03-26T06:31:41;99424.38;;;6.22;80.25
64053;BME280;50299;49.524;8.536;2023-03-26T06:34:08;99420.50;;;6.32;75.23
64053;BME280;50299;49.524;8.536;2023-03-26T06:36:34;99431.66;;;6.09;73.68
64053;BME280;50299;49.524;8.536;2023-03-26T06:39:02;99424.25;;;6.01;75.66
64053;BME280;50299;49.524;8.536;2023-03-26T06:41:34;99411.31;;;6.19;79.57
64053;BME280;50299;49.524;8.536;2023-03-26T06:44:01;99404.34;;;6.48;79.89
64053;BME280;50299;49.524;8.536;2023-03-26T06:46:27;99405.59;;;6.59;74.72
64053;BME280;50299;49.524;8.536;2023-03-26T06:48:57;99397.13;;;6.81;75.88
64053;BME280;50299;49.524;8.536;2023-03-26T06:51:24;99393.22;;;6.91;75.00
64053;BME280;50299;49.524;8.536;2023-03-26T06:53:51;99397.34;;;7.06;74.59
64053;BME280;50299;49.524;8.536;2023-03-26T06:56:17;99394.88;;;7.13;71.19
64053;BME280;50299;49.524;8.536;2023-03-26T06:58:45;99379.78;;;7.19;73.59
64053;BME280;50299;49.524;8.536;2023-03-26T07:01:11;99388.13;;;7.31;71.20
64053;BME280;50299;49.524;8.536;2023-03-26T07:03:38;99386.53;;;7.30;72.16
64053;BME280;50299;49.524;8.536;2023-03-26T07:06:05;99384.31;;;7.24;71.66
64053;BME280;50299;49.524;8.536;2023-03-26T07:08:31;99379.94;;;7.23;71.80
64053;BME280;50299;49.524;8.536;2023-03-26T07:10:58;99375.06;;;7.28;67.99
64053;BME280;50299;49.524;8.536;2023-03-26T07:13:24;99371.56;;;7.19;69.65
64053;BME280;50299;49.524;8.536;2023-03-26T07:15:51;99364.34;;;7.35;72.27
64053;BME280;50299;49.524;8.536;2023-03-26T07:18:17;99363.72;;;7.30;71.33
64053;BME280;50299;49.524;8.536;2023-03-26T07:20:46;99363.97;;;7.46;74.98
64053;BME280;50299;49.524;8.536;2023-03-26T07:23:13;99355.88;;;7.70;76.00
64053;BME280;50299;49.524;8.536;2023-03-26T07:25:41;99348.34;;;7.79;74.02
64053;BME280;50299;49.524;8.536;2023-03-26T07:28:21;99355.47;;;7.59;74.22
64053;BME280;50299;49.524;8.536;2023-03-26T07:31:04;99355.41;;;7.18;75.56
64053;BME280;50299;49.524;8.536;2023-03-26T07:33:45;99347.28;;;6.62;75.08
64053;BME280;50299;49.524;8.536;2023-03-26T07:36:25;99346.38;;;6.40;74.39
64053;BME280;50299;49.524;8.536;2023-03-26T07:39:13;99346.09;;;6.07;73.17
64053;BME280;50299;49.524;8.536;2023-03-26T07:45:15;99321.88;;;6.18;73.94
64053;BME280;50299;49.524;8.536;2023-03-26T07:47:45;99325.78;;;6.26;72.47
64053;BME280;50299;49.524;8.536;2023-03-26T07:50:17;99316.22;;;6.32;73.44
64053;BME280;50299;49.524;8.536;2023-03-26T07:52:46;99322.03;;;6.30;73.30
64053;BME280;50299;49.524;8.536;2023-03-26T07:55:14;99320.00;;;5.93;72.50
64053;BME280;50299;49.524;8.536;2023-03-26T07:57:56;99334.22;;;5.60;76.19
64053;BME280;50299;49.524;8.536;2023-03-26T08:00:33;99328.25;;;5.40;79.70
64053;BME280;50299;49.524;8.536;2023-03-26T08:06:11;99339.28;;;4.92;89.28
64053;BME280;50299;49.524;8.536;2023-03-26T08:08:48;99330.44;;;4.64;91.19
64053;BME280;50299;49.524;8.536;2023-03-26T08:11:42;99338.09;;;4.13;92.72
64053;BME280;50299;49.524;8.536;2023-03-26T08:14:31;99340.22;;;4.16;95.37
64053;BME280;50299;49.524;8.536;2023-03-26T08:19:57;99350.06;;;3.95;96.64
64053;BME280;50299;49.524;8.536;2023-03-26T08:22:33;99336.94;;;4.06;98.12
64053;BME280;50299;49.524;8.536;2023-03-26T08:27:40;99351.34;;;4.20;98.59
64053;BME280;50299;49.524;8.536;2023-03-26T08:32:56;99351.38;;;4.60;99.64
64053;BME280;50299;49.524;8.536;2023-03-26T08:35:24;99341.41;;;4.64;99.55
64053;BME280;50299;49.524;8.536;2023-03-26T08:37:52;99317.28;;;4.66;100.00
64053;BME280;50299;49.524;8.536;2023-03-26T08:48:58;99323.22;;;5.16;94.80
64053;BME280;50299;49.524;8.536;2023-03-26T08:51:51;99318.91;;;4.76;89.04
64053;BME280;50299;49.524;8.536;2023-03-26T09:00:11;99314.47;;;4.97;93.43
64053;BME280;50299;49.524;8.536;2023-03-26T09:03:15;99313.38;;;4.98;93.80
64053;BME280;50299;49.524;8.536;2023-03-26T09:11:46;99282.75;;;5.13;93.35
64053;BME280;50299;49.524;8.536;2023-03-26T09:20:33;99275.19;;;5.80;94.46
64053;BME280;50299;49.524;8.536;2023-03-26T09:30:53;99257.63;;;6.57;91.96
64053;BME280;50299;49.524;8.536;2023-03-26T09:45:45;99247.56;;;6.40;91.34
64053;BME280;50299;49.524;8.536;2023-03-26T09:54:25;99241.47;;;6.85;92.02
64053;BME280;50299;49.524;8.536;2023-03-26T09:57:21;99238.44;;;7.08;90.87
64053;BME280;50299;49.524;8.536;2023-03-26T10:00:34;99234.75;;;7.04;87.19
64053;BME280;50299;49.524;8.536;2023-03-26T10:03:04;99241.63;;;7.31;86.75
64053;BME280;50299;49.524;8.536;2023-03-26T10:05:43;99229.63;;;7.35;85.92
64053;BME280;50299;49.524;8.536;2023-03-26T10:08:30;99226.53;;;7.58;86.75
64053;BME280;50299;49.524;8.536;2023-03-26T10:11:12;99225.19;;;7.64;80.94
64053;BME280;50299;49.524;8.536;2023-03-26T10:27:20;99215.41;;;8.98;74.55
64053;BME280;50299;49.524;8.536;2023-03-26T10:30:06;99216.13;;;8.33;68.65
64053;BME280;50299;49.524;8.536;2023-03-26T10:32:55;99216.25;;;8.49;71.86
64053;BME280;50299;49.524;8.536;2023-03-26T10:41:34;99211.56;;;9.15;65.46
64053;BME280;50299;49.524;8.536;2023-03-26T10:44:09;99205.50;;;9.37;73.31
64053;BME280;50299;49.524;8.536;2023-03-26T10:52:36;99205.19;;;7.88;76.66
64053;BME280;50299;49.524;8.536;2023-03-26T10:57:58;99211.78;;;7.62;77.67
64053;BME280;50299;49.524;8.536;2023-03-26T11:00:26;99201.19;;;7.52;77.40
64053;BME280;50299;49.524;8.536;2023-03-26T11:08:34;99205.06;;;7.97;77.38
64053;BME280;50299;49.524;8.536;2023-03-26T11:11:28;99193.06;;;8.13;76.24
64053;BME280;50299;49.524;8.536;2023-03-26T11:14:07;99189.38;;;8.46;76.35
64053;BME280;50299;49.524;8.536;2023-03-26T11:16:51;99193.13;;;8.91;73.88
64053;BME280;50299;49.524;8.536;2023-03-26T11:19:28;99186.63;;;8.71;78.09
64053;BME280;50299;49.524;8.536;2023-03-26T11:22:15;99192.56;;;8.97;75.78
64053;BME280;50299;49.524;8.536;2023-03-26T11:27:59;99188.47;;;9.47;71.55
64053;BME280;50299;49.524;8.536;2023-03-26T11:30:20;99184.91;;;9.47;73.60
64053;BME280;50299;49.524;8.536;2023-03-26T11:32:53;99184.03;;;9.58;68.96
64053;BME280;50299;49.524;8.536;2023-03-26T11:35:44;99192.19;;;9.99;64.60
64053;BME280;50299;49.524;8.536;2023-03-26T11:38:18;99174.91;;;10.49;67.85
64053;BME280;50299;49.524;8.536;2023-03-26T11:40:49;99183.69;;;10.71;64.50
64053;BME280;50299;49.524;8.536;2023-03-26T11:43:22;99171.94;;;9.91;63.58
64053;BME280;50299;49.524;8.536;2023-03-26T11:45:50;99166.72;;;9.46;63.50
64053;BME280;50299;49.524;8.536;2023-03-26T11:48:31;99181.47;;;8.69;62.45
64053;BME280;50299;49.524;8.536;2023-03-26T11:51:05;99157.38;;;8.29;61.36
64053;BME280;50299;49.524;8.536;2023-03-26T11:53:35;99182.38;;;7.87;60.46
64053;BME280;50299;49.524;8.536;2023-03-26T11:56:14;99188.41;;;6.52;66.47
64053;BME280;50299;49.524;8.536;2023-03-26T11:58:51;99187.03;;;4.82;87.03
64053;BME280;50299;49.524;8.536;2023-03-26T12:01:38;99190.72;;;4.03;95.55
64053;BME280;50299;49.524;8.536;2023-03-26T12:04:11;99198.38;;;3.92;99.92
64053;BME280;50299;49.524;8.536;2023-03-26T12:06:50;99207.72;;;3.24;100.00
64053;BME280;50299;49.524;8.536;2023-03-26T12:09:19;99201.03;;;3.53;100.00
64053;BME280;50299;49.524;8.536;2023-03-26T12:11:46;99195.22;;;3.77;100.00
64053;BME280;50299;49.524;8.536;2023-03-26T12:14:17;99180.28;;;4.14;100.00
64053;BME280;50299;49.524;8.536;2023-03-26T12:17:31;99175.25;;;4.64;100.00
64053;BME280;50299;49.524;8.536;2023-03-26T12:19:58;99178.00;;;4.64;100.00
64053;BME280;50299;49.524;8.536;2023-03-26T12:22:36;99182.38;;;5.35;100.00
64053;BME280;50299;49.524;8.536;2023-03-26T12:28:27;99169.09;;;5.54;100.00
64053;BME280;50299;49.524;8.536;2023-03-26T12:30:57;99167.00;;;5.42;100.00
64053;BME280;50299;49.524;8.536;2023-03-26T12:33:27;99164.31;;;5.25;100.00
64053;BME280;50299;49.524;8.536;2023-03-26T12:35:55;99166.06;;;5.30;99.39
64053;BME280;50299;49.524;8.536;2023-03-26T12:38:31;99162.78;;;6.09;100.00
64053;BME280;50299;49.524;8.536;2023-03-26T12:41:07;99163.88;;;6.47;98.33
64053;BME280;50299;49.524;8.536;2023-03-26T12:43:53;99161.63;;;6.90;87.24
64053;BME280;50299;49.524;8.536;2023-03-26T12:46:44;99166.25;;;8.10;72.63
64053;BME280;50299;49.524;8.536;2023-03-26T12:49:34;99153.72;;;9.02;72.52
64053;BME280;50299;49.524;8.536;2023-03-26T12:55:38;99162.09;;;9.50;61.44
64053;BME280;50299;49.524;8.536;2023-03-26T13:02:01;99154.66;;;9.66;59.21
64053;BME280;50299;49.524;8.536;2023-03-26T13:04:59;99159.34;;;9.50;56.19
64053;BME280;50299;49.524;8.536;2023-03-26T13:08:04;99154.91;;;9.45;57.38
64053;BME280;50299;49.524;8.536;2023-03-26T13:13:40;99162.59;;;8.83;64.82
64053;BME280;50299;49.524;8.536;2023-03-26T13:16:16;99155.25;;;8.87;59.24
64053;BME280;50299;49.524;8.536;2023-03-26T13:19:13;99157.53;;;8.98;52.99
64053;BME280;50299;49.524;8.536;2023-03-26T13:24:29;99139.94;;;9.74;54.57
64053;BME280;50299;49.524;8.536;2023-03-26T13:27:25;99142.66;;;10.38;55.68
64053;BME280;50299;49.524;8.536;2023-03-26T13:30:46;99145.63;;;10.64;54.12
64053;BME280;50299;49.524;8.536;2023-03-26T13:35:48;99135.84;;;11.44;52.05
64053;BME280;50299;49.524;8.536;2023-03-26T13:41:31;99131.38;;;10.62;48.91
64053;BME280;50299;49.524;8.536;2023-03-26T13:47:33;99126.13;;;9.74;51.06
64053;BME280;50299;49.524;8.536;2023-03-26T13:52:53;99121.38;;;9.43;46.61
64053;BME280;50299;49.524;8.536;2023-03-26T13:55:27;99112.53;;;9.22;47.47
64053;BME280;50299;49.524;8.536;2023-03-26T13:58:19;99110.19;;;9.24;45.63
64053;BME280;50299;49.524;8.536;2023-03-26T14:01:12;99118.03;;;9.37;51.06
64053;BME280;50299;49.524;8.536;2023-03-26T14:03:59;99107.53;;;9.27;51.19
64053;BME280;50299;49.524;8.536;2023-03-26T14:06:39;99112.28;;;9.43;47.56
64053;BME280;50299;49.524;8.536;2023-03-26T14:12:23;99111.53;;;9.14;47.01
64053;BME280;50299;49.524;8.536;2023-03-26T14:17:25;99108.44;;;9.31;46.06
64053;BME280;50299;49.524;8.536;2023-03-26T14:20:35;99093.97;;;9.50;42.84
64053;BME280;50299;49.524;8.536;2023-03-26T14:23:33;99091.38;;;9.26;51.31
64053;BME280;50299;49.524;8.536;2023-03-26T14:26:09;99085.41;;;9.40;46.26
64053;BME280;50299;49.524;8.536;2023-03-26T14:29:17;99080.66;;;9.24;45.77
64053;BME280;50299;49.524;8.536;2023-03-26T14:40:25;99080.88;;;8.75;45.55
64053;BME280;50299;49.524;8.536;2023-03-26T14:45:53;99086.19;;;7.91;48.88
64053;BME280;50299;49.524;8.536;2023-03-26T14:48:36;99087.66;;;7.76;48.33
64053;BME280;50299;49.524;8.536;2023-03-26T14:54:01;99082.84;;;7.15;51.02
64053;BME280;50299;49.524;8.536;2023-03-26T15:05:44;99060.53;;;6.84;53.06
64053;BME280;50299;49.524;8.536;2023-03-26T15:11:31;99083.47;;;6.46;54.30
64053;BME280;50299;49.524;8.536;2023-03-26T15:22:52;99099.63;;;5.88;57.94
64053;BME280;50299;49.524;8.536;2023-03-26T15:31:27;99124.72;;;5.99;59.73
64053;BME280;50299;49.524;8.536;2023-03-26T15:43:05;99122.41;;;5.80;57.87
64053;BME280;50299;49.524;8.536;2023-03-26T15:48:50;99128.28;;;5.61;61.29
64053;BME280;50299;49.524;8.536;2023-03-26T15:51:28;99131.25;;;5.22;61.18
64053;BME280;50299;49.524;8.536;2023-03-26T15:54:25;99144.16;;;5.30;61.09
64053;BME280;50299;49.524;8.536;2023-03-26T16:10:17;99154.97;;;5.35;63.40
64053;BME280;50299;49.524;8.536;2023-03-26T16:18:44;99173.00;;;5.36;64.25
64053;BME280;50299;49.524;8.536;2023-03-26T16:26:39;99186.22;;;5.25;64.23
64053;BME280;50299;49.524;8.536;2023-03-26T16:37:46;99191.22;;;5.40;63.67
64053;BME280;50299;49.524;8.536;2023-03-26T16:43:02;99204.78;;;5.02;64.94
64053;BME280;50299;49.524;8.536;2023-03-26T16:48:54;99199.78;;;4.87;64.56
64053;BME280;50299;49.524;8.536;2023-03-26T16:57:09;99223.47;;;5.09;65.54
64053;BME280;50299;49.524;8.536;2023-03-26T17:03:00;99216.72;;;4.98;65.91
64053;BME280;50299;49.524;8.536;2023-03-26T17:08:40;99206.06;;;5.05;66.68
64053;BME280;50299;49.524;8.536;2023-03-26T17:11:28;99214.59;;;5.12;65.34
64053;BME280;50299;49.524;8.536;2023-03-26T17:14:28;99211.22;;;5.06;65.61
64053;BME280;50299;49.524;8.536;2023-03-26T17:23:08;99207.69;;;5.06;64.74
64053;BME280;50299;49.524;8.536;2023-03-26T17:25:43;99220.72;;;5.09;65.72
64053;BME280;50299;49.524;8.536;2023-03-26T17:28:44;99220.09;;;5.12;65.57
64053;BME280;50299;49.524;8.536;2023-03-26T17:33:52;99222.34;;;5.19;64.22
64053;BME280;50299;49.524;8.536;2023-03-26T17:36:21;99214.44;;;5.17;65.54
64053;BME280;50299;49.524;8.536;2023-03-26T17:38:55;99223.78;;;5.16;66.45
64053;BME280;50299;49.524;8.536;2023-03-26T17:41:50;99215.25;;;5.35;63.61
64053;BME280;50299;49.524;8.536;2023-03-26T17:44:51;99213.78;;;5.37;66.12
64053;BME280;50299;49.524;8.536;2023-03-26T17:49:52;99223.00;;;5.15;65.30
64053;BME280;50299;49.524;8.536;2023-03-26T17:52:28;99212.50;;;5.44;66.28
64053;BME280;50299;49.524;8.536;2023-03-26T17:54:59;99215.03;;;5.57;65.48
64053;BME280;50299;49.524;8.536;2023-03-26T17:57:42;99223.44;;;5.61;65.64
64053;BME280;50299;49.524;8.536;2023-03-26T18:00:34;99217.94;;;5.61;64.58
64053;BME280;50299;49.524;8.536;2023-03-26T18:03:20;99218.38;;;5.80;66.29
64053;BME280;50299;49.524;8.536;2023-03-26T18:05:52;99222.41;;;5.74;63.56